Time;durP1;ratioP1;P1;durP2;ratioP2;P2;SDS_P1;SDS_P2;PMS_P1;PMS_P2;Temp;Humidity;BMP_temperature;BMP_pressure;BME280_temperature;BME280_humidity;BME280_pressure;Samples;Min_cycle;Max_cycle;Signal;HPM_P1;HPM_P2
2022/11/25 00:01:09;;;;;;;11.03;2.87;;;6.30;99.90;;;;;;5053740;28;20401;-78
2022/11/25 00:03:35;;;;;;;6.37;3.40;;;6.30;99.90;;;;;;5053786;28;20570;-78
2022/11/25 00:06:26;;;;;;;8.53;2.93;;;6.40;99.90;;;;;;5051401;28;20491;-78
2022/11/25 00:09:00;;;;;;;13.47;2.93;;;6.40;99.90;;;;;;5053033;28;20411;-78
2022/11/25 00:11:26;;;;;;;10.20;3.33;;;6.40;99.90;;;;;;5051409;28;20461;-78
2022/11/25 00:13:53;;;;;;;8.33;3.13;;;6.40;99.90;;;;;;5053375;28;20405;-80
2022/11/25 00:16:20;;;;;;;10.10;4.30;;;6.40;99.90;;;;;;5056266;28;20833;-81
2022/11/25 00:18:50;;;;;;;4.70;3.20;;;6.40;99.90;;;;;;5056812;28;20408;-78
2022/11/25 00:21:22;;;;;;;9.60;4.03;;;6.50;99.90;;;;;;5052948;28;20484;-77
2022/11/25 00:23:53;;;;;;;13.37;3.60;;;6.50;99.90;;;;;;5052520;28;20416;-77
2022/11/25 00:26:19;;;;;;;8.53;3.97;;;6.50;99.90;;;;;;5052432;28;20402;-78
2022/11/25 00:28:46;;;;;;;8.27;3.20;;;6.50;99.90;;;;;;5051516;28;20524;-79
2022/11/25 00:31:17;;;;;;;10.70;3.83;;;6.50;99.90;;;;;;5052882;28;20457;-78
2022/11/25 00:33:42;;;;;;;5.10;3.00;;;6.50;99.90;;;;;;5052653;28;20418;-77
2022/11/25 00:36:35;;;;;;;22.03;4.50;;;6.50;99.90;;;;;;5052042;28;20416;-78
2022/11/25 00:39:02;;;;;;;13.97;3.10;;;6.40;99.90;;;;;;5036885;28;20179;-80
2022/11/25 00:46:59;;;;;;;8.50;3.77;;;6.50;99.90;;;;;;5046584;28;20436;-80
2022/11/25 00:49:25;;;;;;;11.33;3.20;;;6.40;99.90;;;;;;5055561;28;20444;-79
2022/11/25 00:51:51;;;;;;;10.97;4.23;;;6.40;99.90;;;;;;5055467;28;20457;-80
2022/11/25 00:54:16;;;;;;;4.77;2.63;;;6.40;99.90;;;;;;5058666;28;20166;-79
2022/11/25 00:56:42;;;;;;;7.40;3.23;;;6.40;99.90;;;;;;5058315;28;20437;-79
2022/11/25 00:59:07;;;;;;;7.23;3.33;;;6.40;99.90;;;;;;5058739;28;20258;-80
2022/11/25 01:01:34;;;;;;;7.60;4.00;;;6.40;99.90;;;;;;5058707;28;20179;-79
2022/11/25 01:03:59;;;;;;;4.20;2.80;;;6.50;99.90;;;;;;5059432;28;20171;-80
2022/11/25 01:06:25;;;;;;;9.93;3.93;;;6.50;99.90;;;;;;5056852;28;20421;-79
2022/11/25 01:08:51;;;;;;;6.03;3.30;;;6.60;99.90;;;;;;5052393;28;20174;-79
2022/11/25 01:11:19;;;;;;;8.23;3.33;;;6.60;99.90;;;;;;5050638;28;20199;-79
2022/11/25 01:13:45;;;;;;;6.03;3.23;;;6.60;99.90;;;;;;5053443;28;20290;-80
2022/11/25 01:16:17;;;;;;;6.13;3.73;;;6.70;99.90;;;;;;5056935;28;20406;-80
2022/11/25 01:18:43;;;;;;;9.07;3.83;;;6.70;99.90;;;;;;5057172;28;20445;-80
2022/11/25 01:21:16;;;;;;;6.03;3.23;;;6.70;99.90;;;;;;5057242;28;20423;-79
2022/11/25 01:23:42;;;;;;;10.23;3.40;;;6.70;99.90;;;;;;5057299;28;20467;-79
2022/11/25 01:26:11;;;;;;;5.40;2.80;;;6.70;99.90;;;;;;5050732;28;20497;-79
2022/11/25 01:28:37;;;;;;;6.73;3.20;;;6.70;99.90;;;;;;5052400;28;20927;-78
2022/11/25 01:31:06;;;;;;;9.20;3.23;;;6.80;99.90;;;;;;5052519;28;20445;-78
2022/11/25 01:33:32;;;;;;;8.63;3.23;;;6.70;99.90;;;;;;5052297;28;20433;-79
2022/11/25 01:36:06;;;;;;;7.73;3.70;;;6.70;99.90;;;;;;5050610;28;20428;-79
2022/11/25 01:38:33;;;;;;;7.50;3.37;;;6.80;99.90;;;;;;5050991;28;20170;-79
2022/11/25 01:40:59;;;;;;;5.63;2.43;;;6.70;99.90;;;;;;5050699;28;20421;-78
2022/11/25 01:43:26;;;;;;;4.47;2.70;;;6.80;99.90;;;;;;5052202;28;20533;-78
2022/11/25 01:45:55;;;;;;;14.70;3.03;;;6.80;99.90;;;;;;5050369;28;20854;-79
2022/11/25 01:48:27;;;;;;;4.37;3.57;;;6.90;99.90;;;;;;5051374;28;20469;-79
2022/11/25 01:50:53;;;;;;;7.20;2.87;;;6.80;99.90;;;;;;5050358;28;20465;-78
2022/11/25 01:53:20;;;;;;;6.80;3.13;;;6.90;99.90;;;;;;5051314;28;20425;-79
2022/11/25 01:56:00;;;;;;;8.27;3.17;;;6.80;99.90;;;;;;5050897;28;20464;-79
2022/11/25 01:58:34;;;;;;;8.70;3.67;;;6.90;99.90;;;;;;5050495;28;20492;-78
2022/11/25 02:00:59;;;;;;;15.43;3.50;;;6.90;99.90;;;;;;5050791;28;20421;-78
2022/11/25 02:03:33;;;;;;;5.77;3.30;;;6.90;99.90;;;;;;5050972;28;21011;-79
2022/11/25 02:06:11;;;;;;;5.30;3.20;;;6.90;99.90;;;;;;5055062;28;20171;-80
2022/11/25 02:08:37;;;;;;;6.53;3.50;;;7.00;99.90;;;;;;5054575;28;20409;-80
2022/11/25 02:11:03;;;;;;;10.80;4.23;;;7.00;99.90;;;;;;5054352;28;20514;-80
2022/11/25 02:13:30;;;;;;;7.03;3.47;;;7.10;99.90;;;;;;5053832;28;20448;-81
2022/11/25 02:15:56;;;;;;;18.23;4.50;;;7.10;99.90;;;;;;5051621;28;20440;-77
2022/11/25 02:18:22;;;;;;;7.80;3.20;;;7.10;99.90;;;;;;5051934;28;20414;-77
2022/11/25 02:20:47;;;;;;;6.40;3.60;;;7.10;99.90;;;;;;5051726;28;20195;-77
2022/11/25 02:23:47;;;;;;;18.80;4.33;;;7.10;99.90;;;;;;5052082;28;20675;-77
2022/11/25 02:26:12;;;;;;;9.10;3.13;;;7.10;99.90;;;;;;5059599;28;20174;-79
2022/11/25 02:28:38;;;;;;;8.60;3.37;;;7.20;99.90;;;;;;5058212;28;20421;-79
2022/11/25 02:31:06;;;;;;;9.80;3.87;;;7.20;99.90;;;;;;5059150;28;20199;-79
2022/11/25 02:33:32;;;;;;;8.10;4.00;;;7.20;99.90;;;;;;5061002;28;20766;-80
2022/11/25 02:35:59;;;;;;;7.10;3.10;;;7.20;99.90;;;;;;5055537;28;20430;-80
2022/11/25 02:38:41;;;;;;;3.90;2.70;;;7.30;99.90;;;;;;5039652;28;20255;-80
2022/11/25 02:41:12;;;;;;;8.20;3.70;;;7.30;99.90;;;;;;5039046;28;20414;-79
2022/11/25 02:43:39;;;;;;;9.37;3.50;;;7.30;99.90;;;;;;5039674;28;20452;-79
2022/11/25 02:46:10;;;;;;;7.80;3.00;;;7.30;99.90;;;;;;5039527;28;20410;-81
2022/11/25 02:48:37;;;;;;;6.90;2.70;;;7.40;99.90;;;;;;5059057;28;20433;-80
2022/11/25 02:51:03;;;;;;;7.73;2.80;;;7.40;99.90;;;;;;5061066;28;20980;-80
2022/11/25 02:53:29;;;;;;;5.40;2.80;;;7.40;99.90;;;;;;5059877;28;20464;-80
2022/11/25 02:55:55;;;;;;;5.70;3.77;;;7.50;99.90;;;;;;5060044;28;20417;-80
2022/11/25 02:58:21;;;;;;;6.23;4.00;;;7.50;99.90;;;;;;5059414;28;20175;-80
2022/11/25 03:00:46;;;;;;;9.97;3.13;;;7.50;99.90;;;;;;5059554;28;20782;-80
2022/11/25 03:03:13;;;;;;;12.20;2.70;;;7.50;99.90;;;;;;5060417;28;20530;-79
2022/11/25 03:05:38;;;;;;;3.57;2.77;;;7.60;99.90;;;;;;5061048;28;20636;-80
2022/11/25 03:08:05;;;;;;;6.80;2.77;;;7.60;99.90;;;;;;5059854;28;20463;-79
2022/11/25 03:10:31;;;;;;;5.43;3.03;;;7.60;99.90;;;;;;5060619;28;20195;-80
2022/11/25 03:12:56;;;;;;;9.10;2.47;;;7.70;99.90;;;;;;5058376;28;20426;-80
2022/11/25 03:15:22;;;;;;;8.17;2.93;;;7.70;99.90;;;;;;5054838;28;20415;-77
2022/11/25 03:17:48;;;;;;;5.20;2.00;;;7.70;99.90;;;;;;5052586;28;20628;-79
2022/11/25 03:20:14;;;;;;;7.20;2.83;;;7.80;99.90;;;;;;5053960;28;20409;-78
2022/11/25 03:22:41;;;;;;;7.63;3.10;;;7.80;99.90;;;;;;5052875;28;20211;-79
2022/11/25 03:25:08;;;;;;;9.00;3.73;;;7.80;99.90;;;;;;5053622;28;20425;-79
2022/11/25 03:27:35;;;;;;;9.40;3.07;;;7.90;99.90;;;;;;5053967;28;20402;-79
2022/11/25 03:30:01;;;;;;;8.77;3.23;;;7.90;99.90;;;;;;5054057;28;20898;-78
2022/11/25 03:32:26;;;;;;;6.93;3.03;;;7.90;99.90;;;;;;5053948;28;20472;-80
2022/11/25 03:34:52;;;;;;;9.53;2.70;;;8.00;99.90;;;;;;5052507;28;20425;-79
2022/11/25 03:37:18;;;;;;;8.20;3.50;;;8.00;99.90;;;;;;5053682;28;20169;-78
2022/11/25 03:39:44;;;;;;;9.00;3.20;;;8.00;99.90;;;;;;5053774;28;20169;-78
2022/11/25 03:42:09;;;;;;;6.77;3.30;;;8.10;99.90;;;;;;5052491;28;20233;-78
2022/11/25 03:44:35;;;;;;;5.27;3.67;;;8.10;99.90;;;;;;5052051;28;20975;-79
2022/11/25 03:47:00;;;;;;;9.17;3.17;;;8.10;99.90;;;;;;5048648;28;20181;-78
2022/11/25 03:49:26;;;;;;;7.83;2.63;;;8.00;99.90;;;;;;5032521;28;20171;-79
2022/11/25 03:51:51;;;;;;;6.50;2.97;;;8.00;99.90;;;;;;5033339;28;20735;-78
2022/11/25 03:54:17;;;;;;;5.47;3.37;;;8.10;99.90;;;;;;5033365;28;20172;-78
2022/11/25 03:56:42;;;;;;;10.10;3.20;;;8.10;99.90;;;;;;5032053;28;20172;-78
2022/11/25 03:59:08;;;;;;;9.73;3.03;;;8.20;99.90;;;;;;5040373;28;20178;-78
2022/11/25 04:01:33;;;;;;;10.83;2.80;;;8.30;99.90;;;;;;5051991;28;20167;-79
2022/11/25 04:03:59;;;;;;;13.80;2.63;;;8.30;99.90;;;;;;5051874;28;20529;-78
2022/11/25 04:06:25;;;;;;;5.67;2.77;;;8.30;99.90;;;;;;5051649;28;20173;-78
2022/11/25 04:08:50;;;;;;;7.93;2.93;;;8.30;99.90;;;;;;5053021;28;20167;-78
2022/11/25 04:11:16;;;;;;;13.80;3.00;;;8.40;99.90;;;;;;5053000;28;20195;-79
2022/11/25 04:13:41;;;;;;;7.10;2.83;;;8.50;99.90;;;;;;5053035;28;20668;-79
2022/11/25 04:16:21;;;;;;;9.60;3.43;;;8.60;99.90;;;;;;5052798;28;20174;-78
2022/11/25 04:18:46;;;;;;;4.20;1.63;;;8.70;99.90;;;;;;5053142;28;20166;-79
2022/11/25 04:21:12;;;;;;;6.60;2.37;;;8.70;99.90;;;;;;5052790;28;20813;-79
2022/11/25 04:23:37;;;;;;;2.43;2.07;;;8.70;99.90;;;;;;5053002;28;20707;-79
2022/11/25 04:26:03;;;;;;;4.20;2.40;;;8.80;99.90;;;;;;5053475;28;20644;-79
2022/11/25 04:28:28;;;;;;;4.33;2.47;;;8.90;99.90;;;;;;5053445;28;20242;-79
2022/11/25 04:30:54;;;;;;;11.53;3.00;;;8.90;99.90;;;;;;5053273;28;20281;-79
2022/11/25 04:33:19;;;;;;;10.00;2.63;;;8.90;99.90;;;;;;5052100;28;20208;-80
2022/11/25 04:35:46;;;;;;;5.77;2.27;;;9.00;99.90;;;;;;5051970;28;20178;-79
2022/11/25 04:38:12;;;;;;;6.40;2.13;;;9.10;99.90;;;;;;5053150;28;20190;-79
2022/11/25 04:40:37;;;;;;;8.53;2.70;;;9.10;99.90;;;;;;5051838;28;20425;-79
2022/11/25 04:43:03;;;;;;;12.60;3.30;;;9.10;99.90;;;;;;5051365;28;20221;-80
2022/11/25 04:45:28;;;;;;;15.87;2.77;;;9.20;99.90;;;;;;5053071;28;20171;-79
2022/11/25 04:47:54;;;;;;;4.23;2.40;;;9.20;99.90;;;;;;5052879;28;20167;-79
2022/11/25 04:50:22;;;;;;;8.10;1.90;;;9.20;99.90;;;;;;5052938;28;20171;-79
2022/11/25 04:52:47;;;;;;;6.40;1.77;;;9.20;99.90;;;;;;5053266;28;20183;-79
2022/11/25 04:55:13;;;;;;;10.10;2.63;;;9.20;99.90;;;;;;5052645;28;20910;-79
2022/11/25 04:57:39;;;;;;;13.07;2.47;;;9.20;99.90;;;;;;5053288;28;20170;-80
2022/11/25 05:00:05;;;;;;;5.57;2.63;;;9.20;99.90;;;;;;5052862;28;20209;-79
2022/11/25 05:02:31;;;;;;;9.30;1.90;;;9.20;99.90;;;;;;5052821;28;20218;-79
2022/11/25 05:04:56;;;;;;;6.57;2.00;;;9.20;99.90;;;;;;5051571;28;20764;-79
2022/11/25 05:07:24;;;;;;;4.67;2.33;;;9.20;99.90;;;;;;5051665;28;20258;-79
2022/11/25 05:09:50;;;;;;;6.00;2.67;;;9.20;99.90;;;;;;5052751;28;20541;-79
2022/11/25 05:12:28;;;;;;;6.53;2.50;;;9.30;99.90;;;;;;5052565;28;20457;-79
2022/11/25 05:14:54;;;;;;;10.93;2.03;;;9.20;99.90;;;;;;5052578;28;20397;-79
2022/11/25 05:17:23;;;;;;;8.50;3.03;;;9.20;99.90;;;;;;5052789;28;20402;-79
2022/11/25 05:19:49;;;;;;;9.10;2.50;;;9.30;99.90;;;;;;5052763;28;20417;-79
2022/11/25 05:22:20;;;;;;;9.90;2.30;;;9.30;99.90;;;;;;5051013;28;20453;-79
2022/11/25 05:24:46;;;;;;;3.17;1.77;;;9.30;99.90;;;;;;5052555;28;20502;-79
2022/11/25 05:27:12;;;;;;;6.27;2.17;;;9.30;99.90;;;;;;5052638;28;20450;-80
2022/11/25 05:29:38;;;;;;;15.90;2.60;;;9.30;99.90;;;;;;5052736;28;20182;-79
2022/11/25 05:32:04;;;;;;;6.90;1.97;;;9.30;99.90;;;;;;5051361;28;20206;-79
2022/11/25 05:34:31;;;;;;;4.13;1.83;;;9.20;99.90;;;;;;5052549;28;20191;-79
2022/11/25 05:36:57;;;;;;;5.67;2.13;;;9.30;99.90;;;;;;5052868;28;20971;-79
2022/11/25 05:39:23;;;;;;;12.80;2.67;;;9.20;99.90;;;;;;5051689;28;20684;-78
2022/11/25 05:41:48;;;;;;;4.10;1.77;;;9.20;99.90;;;;;;5052612;28;20671;-79
2022/11/25 05:44:14;;;;;;;2.40;1.80;;;9.10;99.90;;;;;;5050670;28;20421;-80
2022/11/25 05:46:39;;;;;;;4.00;2.00;;;9.20;99.90;;;;;;5050731;28;20626;-78
2022/11/25 05:49:05;;;;;;;7.50;2.80;;;9.10;99.90;;;;;;5051278;28;20242;-78
2022/11/25 05:51:30;;;;;;;6.60;2.80;;;9.10;99.90;;;;;;5051198;28;20199;-79
2022/11/25 05:53:56;;;;;;;7.47;1.87;;;9.10;99.90;;;;;;5051283;28;20202;-79
2022/11/25 05:56:22;;;;;;;5.40;2.30;;;9.00;99.90;;;;;;5050904;28;20221;-80
2022/11/25 05:58:47;;;;;;;4.83;2.23;;;9.00;99.90;;;;;;5042034;28;20229;-79
2022/11/25 06:01:15;;;;;;;2.93;1.80;;;9.00;99.90;;;;;;5036173;28;20569;-79
2022/11/25 06:03:41;;;;;;;3.43;1.73;;;9.00;99.90;;;;;;5034883;28;20678;-79
2022/11/25 06:06:08;;;;;;;2.73;2.30;;;9.10;99.90;;;;;;5034745;28;20513;-79
2022/11/25 06:08:35;;;;;;;9.00;3.07;;;9.10;99.90;;;;;;5036189;28;20470;-79
2022/11/25 06:11:09;;;;;;;6.10;2.23;;;9.10;99.90;;;;;;5050130;28;20813;-79
2022/11/25 06:13:34;;;;;;;10.07;2.57;;;9.10;99.90;;;;;;5055825;28;20432;-79
2022/11/25 06:16:08;;;;;;;4.50;2.10;;;9.10;99.90;;;;;;5055515;28;20409;-79
2022/11/25 06:18:35;;;;;;;4.53;2.17;;;9.10;99.90;;;;;;5054649;28;20175;-79
2022/11/25 06:21:01;;;;;;;8.53;2.40;;;9.20;99.90;;;;;;5055806;28;20412;-79
2022/11/25 06:23:26;;;;;;;12.00;2.73;;;9.20;99.90;;;;;;5054063;28;20468;-79
2022/11/25 06:25:52;;;;;;;4.93;2.47;;;9.20;99.90;;;;;;5055209;28;20174;-79
2022/11/25 06:28:18;;;;;;;8.80;2.40;;;9.20;99.90;;;;;;5055461;28;20167;-79
2022/11/25 06:30:43;;;;;;;3.23;1.63;;;9.20;99.90;;;;;;5054052;28;20268;-79
2022/11/25 06:33:09;;;;;;;5.63;2.00;;;9.20;99.90;;;;;;5053985;28;20608;-79
2022/11/25 06:35:35;;;;;;;8.37;2.30;;;9.10;99.90;;;;;;5055122;28;20178;-79
2022/11/25 06:38:01;;;;;;;4.63;2.40;;;9.00;99.90;;;;;;5055457;28;20594;-79
2022/11/25 06:40:26;;;;;;;12.67;2.80;;;9.00;99.90;;;;;;5055108;28;20493;-79
2022/11/25 06:42:52;;;;;;;9.53;2.43;;;9.00;99.90;;;;;;5055323;28;20316;-79
2022/11/25 06:45:17;;;;;;;4.93;2.03;;;9.00;99.90;;;;;;5053917;28;20206;-79
2022/11/25 06:47:43;;;;;;;5.10;3.10;;;9.00;99.90;;;;;;5053592;28;20170;-79
2022/11/25 06:50:09;;;;;;;5.17;3.87;;;9.00;99.90;;;;;;5053844;28;20194;-79
2022/11/25 06:52:35;;;;;;;8.10;2.10;;;9.00;99.90;;;;;;5054793;28;20221;-79
2022/11/25 06:55:00;;;;;;;5.93;2.10;;;9.00;99.90;;;;;;5054495;28;20413;-78
2022/11/25 06:57:26;;;;;;;3.73;2.20;;;9.00;99.90;;;;;;5054933;28;20178;-79
2022/11/25 06:59:51;;;;;;;5.10;2.37;;;9.00;99.90;;;;;;5054778;28;20175;-79
2022/11/25 07:02:17;;;;;;;4.13;1.80;;;8.90;99.90;;;;;;5054626;28;20333;-79
2022/11/25 07:04:43;;;;;;;2.80;1.97;;;8.80;99.90;;;;;;5052771;28;20204;-78
2022/11/25 07:07:09;;;;;;;2.97;2.37;;;8.60;99.90;;;;;;5054462;28;20566;-80
2022/11/25 07:09:34;;;;;;;8.10;2.70;;;8.60;99.90;;;;;;5054246;28;20467;-78
2022/11/25 07:12:00;;;;;;;7.37;3.33;;;8.50;99.90;;;;;;5053042;28;20202;-78
2022/11/25 07:14:25;;;;;;;7.60;2.53;;;8.50;99.90;;;;;;5053196;28;20526;-78
2022/11/25 07:16:51;;;;;;;8.97;3.93;;;8.50;99.90;;;;;;5054671;28;20261;-79
2022/11/25 07:19:17;;;;;;;8.10;2.20;;;8.30;99.90;;;;;;5054832;28;20194;-78
2022/11/25 07:21:44;;;;;;;4.53;2.63;;;8.30;99.90;;;;;;5053506;28;20222;-78
2022/11/25 07:24:13;;;;;;;6.60;2.80;;;8.30;99.90;;;;;;5053231;28;20461;-78
2022/11/25 07:26:40;;;;;;;10.37;2.50;;;8.20;99.90;;;;;;5053327;28;20456;-78
2022/11/25 07:29:09;;;;;;;12.43;2.97;;;8.10;99.90;;;;;;5054199;28;20421;-78
2022/11/25 07:31:37;;;;;;;2.70;2.30;;;8.10;99.90;;;;;;5054202;28;20511;-78
2022/11/25 07:34:25;;;;;;;4.30;2.10;;;8.00;99.90;;;;;;5053008;28;20413;-79
2022/11/25 07:36:50;;;;;;;3.93;2.00;;;8.00;99.90;;;;;;5054050;28;20783;-78
2022/11/25 07:39:21;;;;;;;8.50;2.30;;;7.90;99.90;;;;;;5053066;28;20428;-78
2022/11/25 07:41:53;;;;;;;5.83;2.93;;;8.00;99.90;;;;;;5053095;28;20266;-79
2022/11/25 07:44:19;;;;;;;6.87;3.53;;;8.10;99.90;;;;;;5055536;28;20413;-80
2022/11/25 07:46:47;;;;;;;2.77;2.30;;;8.10;99.90;;;;;;5055401;28;20421;-80
2022/11/25 07:49:25;;;;;;;2.47;1.87;;;8.10;99.90;;;;;;5054997;28;20413;-80
2022/11/25 07:51:56;;;;;;;7.00;2.10;;;8.20;99.90;;;;;;5053627;28;20469;-78
2022/11/25 07:54:22;;;;;;;4.80;1.97;;;8.20;99.90;;;;;;5053198;28;20480;-78
2022/11/25 07:56:49;;;;;;;5.40;2.40;;;8.30;99.90;;;;;;5052905;28;20518;-78
2022/11/25 07:59:17;;;;;;;3.40;1.90;;;8.60;99.90;;;;;;5052051;28;20258;-78
2022/11/25 08:01:43;;;;;;;3.43;1.97;;;9.00;99.90;;;;;;5053078;28;20524;-78
2022/11/25 08:04:11;;;;;;;2.00;1.63;;;9.50;99.90;;;;;;5052971;28;20499;-78
2022/11/25 08:06:41;;;;;;;2.20;1.57;;;10.20;99.90;;;;;;5052010;28;20297;-79
2022/11/25 08:09:07;;;;;;;3.70;1.67;;;11.00;99.90;;;;;;5053104;28;20407;-78
2022/11/25 08:11:33;;;;;;;3.53;1.60;;;11.80;99.90;;;;;;5051657;28;20449;-78
2022/11/25 08:13:59;;;;;;;2.50;1.30;;;12.40;99.90;;;;;;5052785;28;20409;-79
2022/11/25 08:16:27;;;;;;;2.43;1.37;;;12.90;99.90;;;;;;5052064;28;20412;-78
2022/11/25 08:18:54;;;;;;;3.93;1.67;;;13.50;99.90;;;;;;5052982;28;20182;-79
2022/11/25 08:21:20;;;;;;;4.33;1.20;;;14.10;99.90;;;;;;5052405;28;20425;-78
2022/11/25 08:23:47;;;;;;;3.33;1.40;;;14.80;99.90;;;;;;5052497;28;20562;-78
2022/11/25 08:26:19;;;;;;;3.70;1.60;;;15.10;99.90;;;;;;5053048;28;20409;-78
2022/11/25 08:28:45;;;;;;;4.47;1.40;;;15.40;99.90;;;;;;5053296;28;20406;-78
2022/11/25 08:31:20;;;;;;;1.90;1.40;;;15.70;99.90;;;;;;5051082;28;20833;-78
2022/11/25 08:33:46;;;;;;;2.20;1.03;;;15.90;99.90;;;;;;5051441;28;20432;-79
2022/11/25 08:36:13;;;;;;;4.17;1.30;;;15.90;99.90;;;;;;5052583;28;20409;-79
2022/11/25 08:38:39;;;;;;;3.93;1.57;;;16.20;99.90;;;;;;5052917;28;20405;-79
2022/11/25 08:41:14;;;;;;;12.80;1.90;;;16.20;99.90;;;;;;5051795;28;20452;-79
2022/11/25 08:43:40;;;;;;;2.13;1.23;;;16.20;99.90;;;;;;5047862;28;20445;-79
2022/11/25 08:46:11;;;;;;;4.00;1.33;;;16.20;99.90;;;;;;5047940;28;20505;-79
2022/11/25 08:48:37;;;;;;;4.20;2.80;;;16.70;99.90;;;;;;5032961;28;20171;-79
2022/11/25 08:51:08;;;;;;;5.53;1.00;;;17.10;99.90;;;;;;5048243;28;20512;-79
2022/11/25 08:53:33;;;;;;;8.30;1.47;;;16.90;99.90;;;;;;5050645;28;20760;-78
2022/11/25 08:55:59;;;;;;;12.03;1.53;;;16.70;99.90;;;;;;5051207;28;20413;-78
2022/11/25 08:58:24;;;;;;;2.33;1.10;;;16.80;99.90;;;;;;5051352;28;20662;-79
2022/11/25 09:00:50;;;;;;;2.90;1.30;;;17.20;99.90;;;;;;5052559;28;20663;-79
2022/11/25 09:03:16;;;;;;;2.00;1.63;;;17.50;99.90;;;;;;5051314;28;20198;-79
2022/11/25 09:05:42;;;;;;;2.67;1.20;;;17.70;99.90;;;;;;5052503;28;20174;-79
2022/11/25 09:08:10;;;;;;;2.57;1.47;;;17.80;99.90;;;;;;5052724;28;20186;-78
2022/11/25 09:10:37;;;;;;;3.83;1.73;;;17.80;99.90;;;;;;5051438;28;20878;-79
2022/11/25 09:13:03;;;;;;;4.90;1.23;;;17.80;99.90;;;;;;5052560;28;20455;-79
2022/11/25 09:15:28;;;;;;;3.20;1.00;;;17.70;99.90;;;;;;5052346;28;20398;-78
2022/11/25 09:18:03;;;;;;;2.03;1.53;;;17.90;99.90;;;;;;5051450;28;20664;-79
2022/11/25 09:20:28;;;;;;;3.10;2.33;;;18.10;99.90;;;;;;5052563;28;20260;-79
2022/11/25 09:22:54;;;;;;;3.43;1.67;;;18.30;99.90;;;;;;5052619;28;20465;-78
2022/11/25 09:25:21;;;;;;;9.37;4.03;;;18.70;99.90;;;;;;5054214;28;20743;-80
2022/11/25 09:27:47;;;;;;;3.83;2.10;;;19.10;99.90;;;;;;5054306;28;20196;-79
2022/11/25 09:30:13;;;;;;;3.30;2.30;;;19.00;99.90;;;;;;5053834;28;20493;-80
2022/11/25 09:32:38;;;;;;;3.73;1.90;;;18.80;99.90;;;;;;5055764;28;20533;-79
2022/11/25 09:35:04;;;;;;;3.47;1.90;;;18.10;99.90;;;;;;5057370;28;20409;-79
2022/11/25 09:37:30;;;;;;;4.37;1.40;;;17.90;99.90;;;;;;5058495;28;20167;-79
2022/11/25 09:39:55;;;;;;;5.83;1.80;;;17.50;99.90;;;;;;5058301;28;20447;-79
2022/11/25 09:48:36;;;;;;;4.07;1.70;;;17.70;99.90;;;;;;5040473;28;20899;-79
2022/11/25 09:51:17;;;;;;;2.80;1.43;;;18.10;99.90;;;;;;5038692;28;20438;-79
2022/11/25 09:53:55;;;;;;;3.80;1.90;;;18.30;99.90;;;;;;5048368;28;20436;-79
2022/11/25 09:56:50;;;;;;;5.27;1.90;;;18.20;99.90;;;;;;5058194;28;20409;-79
2022/11/25 09:59:30;;;;;;;5.70;1.57;;;18.70;99.90;;;;;;5059130;28;20420;-79
2022/11/25 10:02:03;;;;;;;5.50;2.13;;;19.40;99.90;;;;;;5060159;28;20429;-79
2022/11/25 10:04:41;;;;;;;17.97;6.70;;;20.30;99.90;;;;;;5044160;28;20426;-79
2022/11/25 10:07:16;;;;;;;4.43;3.33;;;21.20;97.30;;;;;;5035527;28;20756;-78
2022/11/25 10:09:42;;;;;;;5.90;4.17;;;21.70;93.10;;;;;;5035035;28;20897;-78
2022/11/25 10:12:33;;;;;;;4.80;4.03;;;21.70;91.30;;;;;;5049417;28;20456;-79
2022/11/25 10:15:06;;;;;;;4.87;3.10;;;21.60;88.90;;;;;;5059274;28;20178;-80
2022/11/25 10:17:50;;;;;;;4.03;3.50;;;21.20;87.70;;;;;;5057919;28;20478;-79
2022/11/25 10:20:31;;;;;;;4.30;3.53;;;21.50;87.50;;;;;;5058531;28;20409;-79
2022/11/25 10:23:21;;;;;;;4.10;3.80;;;22.20;87.40;;;;;;5059101;28;20448;-80
2022/11/25 10:25:52;;;;;;;8.60;4.33;;;22.80;81.30;;;;;;5057995;28;20409;-80
2022/11/25 10:28:23;;;;;;;16.50;4.47;;;23.60;78.80;;;;;;5059155;28;20409;-79
2022/11/25 10:30:56;;;;;;;10.13;4.00;;;24.10;72.70;;;;;;5059938;28;20783;-79
2022/11/25 10:33:25;;;;;;;5.00;4.00;;;24.00;71.30;;;;;;5059448;28;20436;-79
2022/11/25 10:35:54;;;;;;;4.20;3.80;;;24.40;69.60;;;;;;5059262;28;20488;-80
2022/11/25 10:38:42;;;;;;;4.43;3.50;;;24.50;66.50;;;;;;5058192;28;20778;-80
2022/11/25 10:41:14;;;;;;;2.90;2.60;;;24.30;63.30;;;;;;5059935;28;20892;-79
2022/11/25 10:43:41;;;;;;;4.37;2.67;;;23.00;64.20;;;;;;5059421;28;20509;-80
2022/11/25 10:46:24;;;;;;;3.87;2.60;;;21.80;66.70;;;;;;5057164;28;20418;-79
2022/11/25 10:49:06;;;;;;;7.13;3.00;;;21.10;70.60;;;;;;5059435;28;20405;-80
2022/11/25 10:51:49;;;;;;;4.70;2.20;;;20.80;72.50;;;;;;5059428;28;20449;-80
2022/11/25 10:54:20;;;;;;;4.33;1.70;;;20.00;74.40;;;;;;5059599;28;20402;-79
2022/11/25 10:57:01;;;;;;;5.27;2.27;;;19.40;78.60;;;;;;5057483;28;20413;-80
2022/11/25 10:59:38;;;;;;;4.87;2.43;;;18.50;83.70;;;;;;5058326;28;20412;-79
2022/11/25 11:02:24;;;;;;;7.07;2.53;;;17.70;90.70;;;;;;5058335;28;20857;-80
2022/11/25 11:04:52;;;;;;;3.43;2.00;;;17.30;98.20;;;;;;5057402;28;20414;-80
2022/11/25 11:07:18;;;;;;;6.37;2.23;;;17.90;99.90;;;;;;5057943;28;20532;-79
2022/11/25 11:09:44;;;;;;;3.77;2.40;;;18.60;98.50;;;;;;5045742;28;20426;-80
2022/11/25 11:12:26;;;;;;;8.13;3.80;;;19.50;94.40;;;;;;5039726;28;20219;-80
2022/11/25 11:15:12;;;;;;;3.77;2.50;;;20.10;93.00;;;;;;5039047;28;20911;-78
2022/11/25 11:17:38;;;;;;;5.63;2.90;;;20.80;90.10;;;;;;5053664;28;20409;-77
2022/11/25 11:20:06;;;;;;;8.30;2.53;;;21.00;85.90;;;;;;5049042;28;20489;-77
2022/11/25 11:22:33;;;;;;;3.67;2.47;;;20.30;86.20;;;;;;5052317;28;20820;-78
2022/11/25 11:25:27;;;;;;;6.40;3.10;;;19.40;87.70;;;;;;5052041;28;20794;-79
2022/11/25 11:27:53;;;;;;;14.97;2.90;;;17.70;93.30;;;;;;5050005;28;20877;-76
2022/11/25 11:30:22;;;;;;;6.23;2.37;;;17.10;99.90;;;;;;5053484;28;20894;-76
2022/11/25 11:33:32;;;;;;;10.37;2.83;;;17.30;99.90;;;;;;5052965;28;20441;-76
2022/11/25 11:36:04;;;;;;;8.27;2.33;;;16.70;99.90;;;;;;5042250;28;20417;-76
2022/11/25 11:38:48;;;;;;;7.10;2.70;;;16.70;99.90;;;;;;5052192;28;20902;-77
2022/11/25 11:41:36;;;;;;;14.80;2.70;;;16.20;99.90;;;;;;5053278;28;20405;-76
2022/11/25 11:44:32;;;;;;;9.47;3.63;;;15.50;99.90;;;;;;5053127;28;20663;-76
2022/11/25 11:47:12;;;;;;;4.20;1.43;;;15.30;99.90;;;;;;5056181;28;20505;-79
2022/11/25 11:50:01;;;;;;;9.20;2.37;;;15.40;99.90;;;;;;5057118;28;20455;-79
2022/11/25 11:52:35;;;;;;;12.03;2.67;;;15.90;99.90;;;;;;5056642;28;20496;-79
2022/11/25 11:55:27;;;;;;;6.30;2.33;;;15.70;99.90;;;;;;5057047;28;20463;-79
2022/11/25 11:57:58;;;;;;;9.20;3.13;;;15.60;99.90;;;;;;5047937;28;20411;-79
2022/11/25 12:00:25;;;;;;;3.93;1.80;;;15.70;99.90;;;;;;5035481;28;20403;-79
2022/11/25 12:02:58;;;;;;;6.00;2.13;;;15.60;99.90;;;;;;5035204;28;20978;-79
2022/11/25 12:05:30;;;;;;;5.80;2.10;;;16.30;99.90;;;;;;5036852;28;20429;-79
2022/11/25 12:08:36;;;;;;;7.90;4.90;;;17.20;99.90;;;;;;5036806;28;21042;-79
2022/11/25 12:11:16;;;;;;;6.83;3.60;;;16.90;99.90;;;;;;5014940;28;20490;-79
2022/11/25 12:14:03;;;;;;;4.83;2.40;;;16.50;99.90;;;;;;5000071;28;20465;-80
2022/11/25 12:16:55;;;;;;;7.40;2.00;;;16.50;99.90;;;;;;5021186;28;20415;-77
2022/11/25 12:19:53;;;;;;;4.87;2.03;;;17.40;99.90;;;;;;5089374;28;20509;-76
2022/11/25 12:22:36;;;;;;;4.73;1.80;;;17.90;99.90;;;;;;5088978;28;20774;-76
2022/11/25 12:25:09;;;;;;;8.97;2.10;;;17.30;99.90;;;;;;5088732;28;20516;-78
2022/11/25 12:27:51;;;;;;;6.57;2.03;;;16.90;99.90;;;;;;5089118;28;20407;-77
2022/11/25 12:30:21;;;;;;;7.53;3.37;;;17.00;99.90;;;;;;5089168;28;20388;-77
2022/11/25 12:32:50;;;;;;;5.63;2.47;;;16.70;99.90;;;;;;5055606;28;20467;-77
2022/11/25 12:35:28;;;;;;;5.73;2.30;;;16.60;99.90;;;;;;5065779;28;20409;-76
2022/11/25 12:38:03;;;;;;;6.67;2.90;;;16.70;99.90;;;;;;5068253;28;20858;-77
2022/11/25 12:40:55;;;;;;;3.33;1.90;;;17.60;99.90;;;;;;5050957;28;20409;-77
2022/11/25 12:43:39;;;;;;;5.00;1.97;;;18.40;99.90;;;;;;5075077;28;20492;-78
2022/11/25 12:46:24;;;;;;;6.80;2.80;;;18.30;99.90;;;;;;5088593;28;20406;-77
2022/11/25 12:48:52;;;;;;;3.63;1.93;;;18.80;99.90;;;;;;5088940;28;20400;-78
2022/11/25 12:51:30;;;;;;;4.07;2.30;;;19.10;99.90;;;;;;5082385;28;20436;-77
2022/11/25 12:54:17;;;;;;;3.47;2.20;;;19.40;97.50;;;;;;5068503;28;20401;-77
2022/11/25 12:56:51;;;;;;;6.20;2.00;;;19.50;96.80;;;;;;5068860;28;20415;-77
2022/11/25 12:59:32;;;;;;;7.90;2.03;;;19.70;94.90;;;;;;5068126;28;20451;-78
2022/11/25 13:02:22;;;;;;;5.20;2.10;;;19.90;93.40;;;;;;5068206;28;20519;-78
2022/11/25 13:05:07;;;;;;;4.20;2.03;;;19.90;93.20;;;;;;5087056;28;20772;-77
2022/11/25 13:07:54;;;;;;;5.43;2.50;;;19.60;91.90;;;;;;5088274;28;20473;-78
2022/11/25 13:10:38;;;;;;;7.10;2.07;;;19.30;93.20;;;;;;5086640;28;20407;-78
2022/11/25 13:13:32;;;;;;;6.23;2.20;;;19.40;92.60;;;;;;5088639;28;20435;-78
2022/11/25 13:15:59;;;;;;;7.80;2.07;;;19.10;93.00;;;;;;5071510;28;20507;-79
2022/11/25 13:18:28;;;;;;;5.00;1.93;;;18.80;93.20;;;;;;5067477;28;20456;-78
2022/11/25 13:20:55;;;;;;;3.83;1.97;;;18.80;93.70;;;;;;5067925;28;20543;-78